Time;durP1;ratioP1;P1;durP2;ratioP2;P2;SDS_P1;SDS_P2;PMS_P1;PMS_P2;Temp;Humidity;BMP_temperature;BMP_pressure;BME280_temperature;BME280_humidity;BME280_pressure;Samples;Min_cycle;Max_cycle;Signal;HPM_P1;HPM_P2
2022/01/23 00:00:43;;;;;;;27.05;10.88;;;;;;;6.63;88.91;103497.78;5031492;28;20048;-41
2022/01/23 00:03:16;;;;;;;22.40;10.37;;;;;;;6.63;89.22;103502.28;5032403;28;20048;-42
2022/01/23 00:05:46;;;;;;;36.58;10.48;;;;;;;6.63;89.23;103513.84;5032278;28;20371;-42
2022/01/23 00:08:14;;;;;;;26.50;10.07;;;;;;;6.63;89.45;103500.47;5033744;28;20060;-41
2022/01/23 00:10:40;;;;;;;33.83;11.27;;;;;;;6.60;89.55;103501.50;5033232;28;20021;-42
2022/01/23 00:18:18;;;;;;;28.98;9.95;;;;;;;6.58;89.52;103499.88;5028523;28;20007;-42
2022/01/23 00:20:43;;;;;;;31.58;9.57;;;;;;;6.55;89.19;103500.91;5018174;28;20053;-42
2022/01/23 00:23:28;;;;;;;24.95;10.15;;;;;;;6.57;89.85;103500.84;5013172;28;20090;-42
2022/01/23 00:31:23;;;;;;;36.78;10.95;;;;;;;6.56;90.01;103491.09;5028384;28;20040;-42
2022/01/23 00:33:50;;;;;;;27.77;10.52;;;;;;;6.57;89.64;103490.13;5032124;28;20044;-42
2022/01/23 00:36:15;;;;;;;29.02;10.57;;;;;;;6.57;89.50;103487.47;5018844;28;20040;-41
2022/01/23 00:38:41;;;;;;;34.65;11.60;;;;;;;6.56;89.79;103491.09;5012572;28;20030;-41
2022/01/23 00:41:06;;;;;;;34.25;11.48;;;;;;;6.53;90.30;103480.56;5029639;28;20033;-41
2022/01/23 00:43:34;;;;;;;34.30;11.63;;;;;;;6.52;89.67;103487.72;5030773;28;20061;-41
2022/01/23 00:46:21;;;;;;;28.85;11.05;;;;;;;6.56;89.93;103491.09;5032361;28;20033;-41
2022/01/23 00:51:26;;;;;;;28.23;10.60;;;;;;;6.59;89.34;103480.22;5011991;28;20413;-41
2022/01/23 00:53:52;;;;;;;33.05;10.88;;;;;;;6.60;89.00;103487.28;5019845;28;20022;-40
2022/01/23 00:56:17;;;;;;;39.42;12.18;;;;;;;6.64;89.34;103475.44;5030934;28;20395;-40
2022/01/23 00:58:42;;;;;;;31.38;10.90;;;;;;;6.60;89.18;103472.06;5032190;28;20307;-41
2022/01/23 01:01:07;;;;;;;28.30;10.55;;;;;;;6.57;89.62;103466.91;5031445;28;20100;-41
2022/01/23 01:03:33;;;;;;;35.47;10.98;;;;;;;6.57;89.57;103471.41;5031030;28;20036;-41
2022/01/23 01:05:59;;;;;;;30.90;10.30;;;;;;;6.56;90.01;103469.69;5022476;28;20025;-40
2022/01/23 01:08:25;;;;;;;38.80;12.80;;;;;;;6.60;89.76;103468.53;5030739;28;20470;-40
2022/01/23 01:13:57;;;;;;;30.55;9.68;;;;;;;6.59;89.44;103470.34;5030960;28;20060;-41
2022/01/23 01:30:28;;;;;;;30.38;10.52;;;;;;;6.63;89.18;103480.88;5030640;28;20172;-42
2022/01/23 01:35:34;;;;;;;33.85;11.07;;;;;;;6.67;89.07;103488.63;5030645;28;20555;-42
2022/01/23 01:38:00;;;;;;;36.15;11.10;;;;;;;6.62;89.26;103496.06;5031394;28;20107;-42
2022/01/23 01:40:26;;;;;;;27.73;11.35;;;;;;;6.64;89.80;103494.19;5031209;28;20038;-42
2022/01/23 01:42:51;;;;;;;37.45;10.98;;;;;;;6.62;90.04;103493.41;5031481;28;20037;-43
2022/01/23 01:45:22;;;;;;;28.50;11.55;;;;;;;6.63;89.44;103487.09;5031202;28;20034;-42
2022/01/23 01:47:50;;;;;;;36.55;11.52;;;;;;;6.62;90.12;103484.53;5030346;28;20022;-42
2022/01/23 01:50:15;;;;;;;29.20;10.85;;;;;;;6.66;89.99;103492.28;5028462;28;20113;-41
2022/01/23 01:52:42;;;;;;;40.72;10.30;;;;;;;6.66;89.91;103494.06;5030821;28;20124;-42
2022/01/23 01:55:10;;;;;;;29.55;10.18;;;;;;;6.65;90.16;103487.88;5030274;28;20119;-42
2022/01/23 01:57:40;;;;;;;30.05;9.75;;;;;;;6.62;90.05;103496.06;5016862;28;20037;-41
2022/01/23 02:00:35;;;;;;;31.35;10.38;;;;;;;6.63;89.93;103503.13;5017304;28;20048;-41
2022/01/23 02:08:29;;;;;;;32.40;9.77;;;;;;;6.70;89.57;103492.94;5033831;28;20455;-42
2022/01/23 02:11:02;;;;;;;30.15;10.50;;;;;;;6.68;89.73;103494.84;5034754;28;20037;-42
2022/01/23 02:13:32;;;;;;;28.77;9.45;;;;;;;6.68;89.63;103489.50;5034648;28;20061;-42
2022/01/23 02:16:18;;;;;;;39.28;10.23;;;;;;;6.66;89.86;103497.63;5032854;28;20053;-41
2022/01/23 02:51:05;;;;;;;32.33;12.60;;;;;;;6.65;90.59;103452.22;5028157;28;20044;-42
2022/01/23 02:55:58;;;;;;;43.25;13.07;;;;;;;6.64;90.59;103454.03;5028432;28;20033;-41
2022/01/23 02:58:31;;;;;;;30.55;13.02;;;;;;;6.64;90.56;103461.22;5033402;28;20025;-42
2022/01/23 03:01:15;;;;;;;33.40;12.93;;;;;;;6.65;90.27;103453.06;5033969;28;20121;-41
2022/01/23 03:03:44;;;;;;;36.30;14.02;;;;;;;6.64;90.71;103456.72;5033766;28;20040;-42
2022/01/23 03:09:09;;;;;;;36.88;12.63;;;;;;;6.68;90.71;103450.22;5032540;28;20037;-42
2022/01/23 03:12:03;;;;;;;46.75;14.20;;;;;;;6.65;90.07;103449.53;5032830;28;20045;-42
2022/01/23 03:28:17;;;;;;;36.28;14.45;;;;;;;6.64;90.66;103447.84;5032028;28;20497;-43
2022/01/23 03:30:51;;;;;;;;;;;;;;;6.64;90.68;103456.72;5033002;28;20044;-41
2022/01/23 03:33:16;;;;;;;38.13;13.90;;;;;;;6.64;90.63;103456.72;5032670;28;19917;-42
2022/01/23 03:35:42;;;;;;;37.15;13.20;;;;;;;6.66;90.40;103459.28;5022764;28;20390;-42
2022/01/23 03:38:07;;;;;;;36.58;13.30;;;;;;;6.69;89.71;103462.66;5033261;28;20029;-42
2022/01/23 03:40:33;;;;;;;47.53;15.25;;;;;;;6.70;89.75;103467.03;5028772;28;20040;-42
2022/01/23 03:43:09;;;;;;;35.42;13.93;;;;;;;6.68;89.65;103471.63;5031675;28;20160;-43
2022/01/23 03:45:57;;;;;;;37.50;14.40;;;;;;;6.66;90.04;103469.97;5033218;28;20531;-42
2022/01/23 03:50:51;;;;;;;38.08;13.82;;;;;;;6.70;89.60;103461.69;5030575;28;20394;-41
2022/01/23 03:53:16;;;;;;;40.35;13.77;;;;;;;6.70;89.68;103472.41;5032159;28;20029;-42
2022/01/23 03:55:42;;;;;;;46.67;14.45;;;;;;;6.68;90.14;103470.75;5030121;28;20029;-42
2022/01/23 03:58:07;;;;;;;36.25;13.68;;;;;;;6.65;90.11;103474.47;5030859;28;20033;-42
2022/01/23 04:00:33;;;;;;;43.40;14.90;;;;;;;6.64;90.27;103475.44;5032344;28;20032;-42
2022/01/23 04:02:58;;;;;;;42.67;14.73;;;;;;;6.64;89.97;103470.09;5024379;28;20025;-42
2022/01/23 04:05:23;;;;;;;35.40;15.35;;;;;;;6.63;89.99;103460.31;5032812;28;20023;-42
2022/01/23 04:07:49;;;;;;;39.90;15.40;;;;;;;6.63;89.98;103463.00;5031353;28;20461;-42
2022/01/23 04:10:17;;;;;;;37.42;15.18;;;;;;;6.64;90.15;103458.53;5032420;28;20033;-42
2022/01/23 04:12:56;;;;;;;41.67;15.80;;;;;;;6.62;90.43;103463.13;5026407;28;20108;-42
2022/01/23 04:20:43;;;;;;;40.72;16.02;;;;;;;6.61;90.49;103478.31;5027742;28;20108;-42
2022/01/23 04:31:47;;;;;;;55.72;18.08;;;;;;;6.62;90.22;103488.06;5029810;28;20445;-42
2022/01/23 05:01:13;;;;;;;56.13;21.33;;;;;;;6.54;90.86;103487.66;5028865;28;20398;-42
2022/01/23 05:06:25;;;;;;;53.55;20.10;;;;;;;6.54;90.94;103484.97;5031381;28;20040;-42
2022/01/23 05:08:51;;;;;;;65.60;22.05;;;;;;;6.54;90.94;103487.66;5031537;28;20018;-42
2022/01/23 05:11:16;;;;;;;59.20;21.40;;;;;;;6.55;91.04;103489.34;5032242;28;20489;-41
2022/01/23 05:13:42;;;;;;;63.03;22.80;;;;;;;6.54;90.89;103483.16;5031062;28;20049;-42
2022/01/23 05:16:09;;;;;;;60.10;22.05;;;;;;;6.55;91.05;103489.34;5031701;28;20040;-42
2022/01/23 05:18:35;;;;;;;56.15;21.02;;;;;;;6.54;90.82;103487.66;5031012;28;20112;-42
2022/01/23 05:21:17;;;;;;;57.50;22.63;;;;;;;6.55;91.17;103494.72;5025414;28;20028;-42
2022/01/23 05:23:43;;;;;;;51.67;22.13;;;;;;;6.56;91.07;103491.09;5030521;28;20116;-42
2022/01/23 05:26:08;;;;;;;58.00;22.52;;;;;;;6.59;91.21;103490.91;5024988;28;20164;-42
2022/01/23 05:28:33;;;;;;;62.58;22.40;;;;;;;6.59;91.07;103485.56;5033070;28;20080;-42
2022/01/23 05:30:59;;;;;;;51.30;21.70;;;;;;;6.59;90.95;103482.88;5029119;28;20109;-42
2022/01/23 05:33:24;;;;;;;64.88;22.73;;;;;;;6.56;90.95;103485.75;5033051;28;20032;-41
2022/01/23 05:35:49;;;;;;;62.97;21.38;;;;;;;6.56;91.05;103481.25;5008870;28;20128;-42
2022/01/23 05:38:15;;;;;;;59.42;21.85;;;;;;;6.58;91.18;103476.69;5014492;28;20068;-42
2022/01/23 05:40:42;;;;;;;63.65;23.88;;;;;;;6.58;91.19;103481.13;5027152;28;20028;-41
2022/01/23 05:43:07;;;;;;;62.13;24.85;;;;;;;6.59;90.95;103488.25;5034020;28;20047;-43
2022/01/23 05:45:34;;;;;;;60.38;23.70;;;;;;;6.63;91.25;103487.09;5033544;28;20116;-41
2022/01/23 05:48:00;;;;;;;55.13;22.48;;;;;;;6.62;91.58;103485.38;5035644;28;20029;-41
2022/01/23 05:50:25;;;;;;;76.38;25.85;;;;;;;6.62;91.31;103479.16;5033401;28;20051;-41
2022/01/23 05:52:50;;;;;;;71.50;23.95;;;;;;;6.61;91.01;103472.97;5035925;28;20390;-41
2022/01/23 05:55:16;;;;;;;59.20;22.45;;;;;;;6.57;91.02;103480.28;5035989;28;20492;-42
2022/01/23 05:57:41;;;;;;;61.00;24.27;;;;;;;6.53;91.25;103480.56;5035939;28;20409;-41
2022/01/23 06:00:07;;;;;;;58.88;22.90;;;;;;;6.50;91.44;103484.31;5035160;28;20033;-41
2022/01/23 06:02:32;;;;;;;63.47;23.88;;;;;;;6.49;91.56;103484.38;5035183;28;20485;-41
2022/01/23 06:04:58;;;;;;;62.28;24.42;;;;;;;6.48;91.78;103485.34;5033918;28;20048;-42
2022/01/23 06:07:23;;;;;;;76.28;25.02;;;;;;;6.46;91.66;103480.06;5034317;28;20462;-41
2022/01/23 06:09:48;;;;;;;65.97;24.65;;;;;;;6.45;91.79;103473.00;5036607;28;20025;-42
2022/01/23 06:12:14;;;;;;;62.17;24.02;;;;;;;6.45;92.01;103474.78;5033154;28;20056;-41
2022/01/23 06:14:39;;;;;;;68.90;25.67;;;;;;;6.48;92.05;103474.63;5035023;28;20104;-41
2022/01/23 06:17:04;;;;;;;66.00;26.23;;;;;;;6.46;91.94;103476.53;5034736;28;20026;-42
2022/01/23 06:19:30;;;;;;;59.33;23.33;;;;;;;6.48;91.89;103471.97;5050241;28;20080;-42
2022/01/23 06:21:55;;;;;;;61.30;23.63;;;;;;;6.47;91.85;103480.91;5033662;28;20044;-41
2022/01/23 06:24:29;;;;;;;61.17;23.50;;;;;;;6.48;91.82;103480.00;5035873;28;20029;-42
2022/01/23 06:27:00;;;;;;;66.55;23.35;;;;;;;6.46;91.71;103476.53;5034048;28;20057;-42
2022/01/23 06:29:30;;;;;;;68.57;23.60;;;;;;;6.46;91.75;103477.38;5033214;28;20175;-42
2022/01/23 06:31:58;;;;;;;64.28;24.27;;;;;;;6.46;91.59;103479.22;5049341;28;20033;-42
2022/01/23 06:34:24;;;;;;;64.47;24.20;;;;;;;6.47;91.76;103475.56;5030905;28;20477;-42
2022/01/23 06:36:52;;;;;;;63.90;24.17;;;;;;;6.49;91.83;103479.03;5034044;28;20034;-41
2022/01/23 06:39:18;;;;;;;63.23;24.03;;;;;;;6.51;91.96;103482.47;5026900;28;20037;-42
2022/01/23 06:41:44;;;;;;;70.25;24.85;;;;;;;6.50;91.91;103489.66;5034113;28;20283;-43
2022/01/23 06:44:10;;;;;;;62.97;24.00;;;;;;;6.50;91.72;103494.13;5032922;28;20025;-41
2022/01/23 06:46:36;;;;;;;63.50;23.67;;;;;;;6.52;91.71;103489.53;5033692;28;20112;-41
2022/01/23 06:49:01;;;;;;;60.70;22.48;;;;;;;6.53;91.42;103492.16;5034120;28;20073;-41
2022/01/23 06:51:27;;;;;;;62.60;23.38;;;;;;;6.53;91.21;103496.59;5034541;28;20029;-42
2022/01/23 06:53:52;;;;;;;54.35;22.30;;;;;;;6.53;91.33;103501.97;5033734;28;20048;-42
2022/01/23 06:56:18;;;;;;;67.65;24.90;;;;;;;6.55;91.56;103506.25;5033924;28;20030;-42
2022/01/23 06:58:44;;;;;;;69.88;22.65;;;;;;;6.55;91.49;103506.25;5034211;28;20040;-42
2022/01/23 07:01:10;;;;;;;64.35;23.80;;;;;;;6.57;91.79;103508.88;5032627;28;20026;-42
2022/01/23 07:03:36;;;;;;;61.53;23.10;;;;;;;6.55;91.72;103506.25;5049733;28;20040;-42
2022/01/23 07:06:01;;;;;;;61.13;23.02;;;;;;;6.57;91.80;103509.72;5033792;28;20017;-42
2022/01/23 07:08:26;;;;;;;64.90;23.30;;;;;;;6.59;91.84;103517.66;5033697;28;20022;-42
2022/01/23 07:10:52;;;;;;;63.60;23.45;;;;;;;6.56;91.45;103513.34;5037913;28;20040;-42
2022/01/23 07:13:17;;;;;;;67.93;24.15;;;;;;;6.58;91.62;103515.94;5033468;28;20473;-42
2022/01/23 07:15:42;;;;;;;63.05;23.70;;;;;;;6.59;91.93;103520.34;5034284;28;20029;-42
2022/01/23 07:18:08;;;;;;;60.58;22.10;;;;;;;6.57;91.61;103522.25;5032131;28;20025;-43
2022/01/23 07:20:33;;;;;;;54.17;21.95;;;;;;;6.53;91.53;103520.69;5030721;28;20025;-42
2022/01/23 07:22:58;;;;;;;69.10;23.90;;;;;;;6.50;91.45;103523.53;5033828;28;20033;-42
2022/01/23 07:25:24;;;;;;;62.63;23.88;;;;;;;6.46;91.47;103522.88;5048841;28;20037;-42
2022/01/23 07:27:53;;;;;;;65.95;23.88;;;;;;;6.44;91.84;103518.56;5033876;28;20513;-41
2022/01/23 07:30:29;;;;;;;60.83;23.38;;;;;;;6.43;91.81;103522.19;5033086;28;20037;-41
2022/01/23 07:32:54;;;;;;;66.80;23.67;;;;;;;6.40;91.73;103525.03;5033594;28;20044;-42
2022/01/23 07:35:20;;;;;;;62.42;24.90;;;;;;;6.38;91.62;103531.34;5033097;28;20104;-42
2022/01/23 07:37:45;;;;;;;68.47;24.20;;;;;;;6.36;91.65;103538.59;5033247;28;20051;-42
2022/01/23 07:40:11;;;;;;;66.82;23.05;;;;;;;6.38;91.61;103533.16;5035483;28;20087;-42
2022/01/23 07:42:39;;;;;;;69.57;23.92;;;;;;;6.38;91.75;103541.19;5033361;28;20064;-42
2022/01/23 07:45:04;;;;;;;69.95;25.60;;;;;;;6.39;91.78;103542.91;5033522;28;20113;-42
2022/01/23 07:47:31;;;;;;;75.55;25.35;;;;;;;6.38;91.78;103546.53;5035334;28;20034;-43
2022/01/23 07:49:56;;;;;;;64.22;25.40;;;;;;;6.40;91.83;103555.34;5035724;28;20033;-42
2022/01/23 07:52:21;;;;;;;67.60;25.92;;;;;;;6.41;91.73;103548.16;5031996;28;20397;-42
2022/01/23 07:54:47;;;;;;;65.75;24.77;;;;;;;6.44;91.88;103553.34;5031127;28;20108;-42
2022/01/23 07:57:12;;;;;;;70.78;25.90;;;;;;;6.48;91.90;103552.22;5032112;28;20076;-42
2022/01/23 07:59:38;;;;;;;63.72;24.20;;;;;;;6.49;91.46;103545.91;5035249;28;20029;-42
2022/01/23 08:02:03;;;;;;;76.47;25.92;;;;;;;6.52;91.70;103553.75;5024062;28;20116;-43
2022/01/23 08:04:29;;;;;;;73.88;26.40;;;;;;;6.53;91.85;103556.34;5026826;28;20061;-42
2022/01/23 08:07:08;;;;;;;71.13;27.33;;;;;;;6.53;91.73;103555.47;5019206;28;20358;-44
2022/01/23 08:09:34;;;;;;;66.38;26.23;;;;;;;6.54;91.85;103567.91;5030085;28;20033;-43
2022/01/23 08:12:00;;;;;;;72.45;26.75;;;;;;;6.52;91.55;103559.97;5028429;28;20449;-42
2022/01/23 08:14:25;;;;;;;79.65;27.40;;;;;;;6.51;91.45;103563.59;5047692;28;20418;-41
2022/01/23 08:16:50;;;;;;;73.35;25.23;;;;;;;6.54;91.55;103565.25;5032937;28;20127;-41
2022/01/23 08:19:16;;;;;;;78.93;25.40;;;;;;;6.51;91.45;103570.78;5030589;28;20096;-41
2022/01/23 08:21:41;;;;;;;74.10;26.70;;;;;;;6.51;91.24;103568.09;5031576;28;20073;-42
2022/01/23 08:24:06;;;;;;;77.00;27.35;;;;;;;6.51;91.44;103576.97;5030820;28;20024;-42
2022/01/23 08:26:32;;;;;;;69.60;27.60;;;;;;;6.52;91.35;103569.81;5027290;28;20116;-41
2022/01/23 08:28:57;;;;;;;75.07;24.70;;;;;;;6.52;91.10;103570.66;5026439;28;20018;-41
2022/01/23 08:31:22;;;;;;;72.25;26.38;;;;;;;6.51;91.09;103568.94;5027408;28;20389;-40
2022/01/23 08:33:48;;;;;;;76.88;27.52;;;;;;;6.52;90.89;103580.50;5028937;28;20052;-40
2022/01/23 08:36:13;;;;;;;69.85;24.70;;;;;;;6.55;90.88;103572.31;5030790;28;20037;-41
2022/01/23 08:38:39;;;;;;;64.07;25.30;;;;;;;6.57;90.60;103567.72;5025461;28;20030;-41
2022/01/23 08:43:48;;;;;;;62.42;24.85;;;;;;;6.60;90.39;103575.56;5029110;28;20432;-41
2022/01/23 08:46:14;;;;;;;59.80;25.40;;;;;;;6.60;90.08;103578.25;5025131;28;20026;-41
2022/01/23 08:48:41;;;;;;;63.75;24.83;;;;;;;6.67;89.86;103573.41;5029955;28;21014;-40
2022/01/23 08:51:06;;;;;;;74.63;25.20;;;;;;;6.69;89.40;103575.06;5031639;28;20036;-41
2022/01/23 08:53:32;;;;;;;74.55;25.60;;;;;;;6.72;89.88;103574.88;5009868;28;20013;-42
2022/01/23 08:55:57;;;;;;;63.80;23.73;;;;;;;6.75;89.87;103572.00;5029525;28;20037;-40
2022/01/23 08:58:22;;;;;;;68.85;25.58;;;;;;;6.78;89.91;103587.03;5026764;28;20025;-40
2022/01/23 09:00:48;;;;;;;69.28;25.20;;;;;;;6.86;89.94;103567.84;5026409;28;20064;-41
2022/01/23 09:03:14;;;;;;;66.68;23.60;;;;;;;6.89;89.80;103573.00;5031019;28;20025;-41
2022/01/23 09:05:39;;;;;;;65.53;23.98;;;;;;;6.91;89.78;103563.94;5031908;28;20057;-42
2022/01/23 09:08:05;;;;;;;65.10;24.05;;;;;;;6.90;89.00;103567.59;5032002;28;20041;-42
2022/01/23 09:10:39;;;;;;;60.15;23.35;;;;;;;6.86;88.23;103570.53;5030538;28;20025;-43
2022/01/23 09:13:10;;;;;;;66.07;24.30;;;;;;;6.87;88.68;103564.19;5023869;28;20050;-41
2022/01/23 09:15:36;;;;;;;64.60;25.15;;;;;;;6.91;88.43;103565.75;5032067;28;20136;-41
2022/01/23 09:18:03;;;;;;;58.80;24.95;;;;;;;6.94;88.64;103578.97;5031035;28;20140;-41
2022/01/23 09:20:29;;;;;;;71.30;26.38;;;;;;;6.99;89.13;103568.84;5031803;28;20104;-42
2022/01/23 09:22:54;;;;;;;68.18;25.25;;;;;;;7.03;88.60;103573.06;5031423;28;20124;-41
2022/01/23 09:25:20;;;;;;;65.18;23.73;;;;;;;7.04;87.86;103582.81;5031788;28;20029;-42
2022/01/23 09:27:46;;;;;;;66.95;23.25;;;;;;;7.09;87.51;103578.06;5031637;28;20057;-41
2022/01/23 09:30:19;;;;;;;64.55;24.40;;;;;;;7.12;87.65;103579.69;5031767;28;20072;-42
2022/01/23 09:32:46;;;;;;;58.60;22.42;;;;;;;7.16;87.39;103575.84;5031169;28;20152;-42
2022/01/23 09:35:12;;;;;;;67.40;22.87;;;;;;;7.19;86.93;103581.91;5031616;28;20109;-42
2022/01/23 09:37:38;;;;;;;57.22;23.40;;;;;;;7.18;86.62;103585.50;5010568;28;20022;-42
2022/01/23 09:40:05;;;;;;;61.92;22.88;;;;;;;7.24;86.83;103586.97;5030573;28;20053;-42
2022/01/23 09:42:36;;;;;;;68.78;24.23;;;;;;;7.30;86.75;103588.44;5027015;28;20068;-42
2022/01/23 09:45:08;;;;;;;59.58;23.33;;;;;;;7.28;85.93;103601.06;5031408;28;20021;-43
2022/01/23 09:47:36;;;;;;;63.85;24.17;;;;;;;7.29;86.22;103600.94;5010798;28;20548;-41
2022/01/23 09:50:03;;;;;;;56.70;23.17;;;;;;;7.34;86.27;103596.16;5011457;28;20350;-42
2022/01/23 09:52:33;;;;;;;63.20;23.83;;;;;;;7.45;86.41;103606.22;5031535;28;20120;-41
2022/01/23 09:55:06;;;;;;;56.75;23.17;;;;;;;7.61;85.91;103609.72;5031369;28;20030;-41
2022/01/23 09:57:33;;;;;;;61.10;24.00;;;;;;;7.54;84.70;103605.69;5027684;28;20057;-42
2022/01/23 09:59:59;;;;;;;57.83;22.13;;;;;;;7.45;85.28;103608.91;5027044;28;20037;-42
2022/01/23 10:02:25;;;;;;;59.50;23.05;;;;;;;7.44;85.29;103600.00;5022378;28;20029;-42
2022/01/23 10:04:53;;;;;;;55.08;20.35;;;;;;;7.53;84.58;103600.41;5027427;28;20465;-42
2022/01/23 10:07:20;;;;;;;41.42;19.15;;;;;;;7.57;83.78;103600.13;5030437;28;20065;-44
2022/01/23 10:09:52;;;;;;;53.30;21.83;;;;;;;7.69;82.92;103601.19;5045584;28;20525;-42
2022/01/23 10:12:19;;;;;;;52.60;19.27;;;;;;;7.75;82.73;103599.97;5029160;28;20085;-41
2022/01/23 10:14:44;;;;;;;49.42;19.50;;;;;;;7.84;82.52;103602.03;5028860;28;20041;-42
2022/01/23 10:17:10;;;;;;;51.90;19.30;;;;;;;7.72;82.55;103600.16;5029912;28;20029;-41
2022/01/23 10:19:35;;;;;;;45.45;17.85;;;;;;;7.52;82.02;103599.53;5035073;28;20477;-41
2022/01/23 10:22:03;;;;;;;41.22;18.33;;;;;;;7.47;82.62;103607.84;5032332;28;20466;-41
2022/01/23 10:24:28;;;;;;;49.55;18.08;;;;;;;7.50;83.10;103604.13;5027614;28;20040;-41
2022/01/23 10:26:57;;;;;;;38.47;16.55;;;;;;;7.52;82.99;103599.53;5034801;28;20018;-42
2022/01/23 10:29:26;;;;;;;33.85;16.33;;;;;;;7.67;82.56;103608.47;5032304;28;20033;-41
2022/01/23 10:32:21;;;;;;;39.28;16.48;;;;;;;7.68;81.09;103599.47;5034553;28;20040;-42
2022/01/23 10:34:49;;;;;;;41.63;15.95;;;;;;;7.67;80.76;103595.94;5032479;28;20025;-41
2022/01/23 10:37:36;;;;;;;35.20;16.33;;;;;;;7.83;80.78;103595.81;5031010;28;20367;-41
2022/01/23 10:40:10;;;;;;;31.75;14.32;;;;;;;7.99;79.32;103592.19;5032462;28;20041;-42
2022/01/23 10:51:16;;;;;;;39.70;16.90;;;;;;;8.00;79.38;103584.03;5032837;28;20507;-41
2022/01/23 10:54:07;;;;;;;40.40;19.30;;;;;;;7.96;80.49;103582.50;5028035;28;20069;-42
2022/01/23 10:56:56;;;;;;;48.55;19.75;;;;;;;7.86;80.93;103590.25;5027722;28;20053;-42
2022/01/23 10:59:22;;;;;;;43.00;18.67;;;;;;;7.81;80.47;103588.84;5033545;28;20116;-41
2022/01/23 11:02:01;;;;;;;44.45;18.20;;;;;;;7.62;80.25;103586.44;5033657;28;20124;-42
2022/01/23 11:04:27;;;;;;;53.25;19.38;;;;;;;7.60;80.13;103574.94;5015432;28;20493;-41
2022/01/23 11:07:05;;;;;;;42.20;17.95;;;;;;;7.63;79.88;103589.00;5029474;28;20040;-43
2022/01/23 11:09:31;;;;;;;;;;;;;;;7.85;79.67;103579.66;5033565;28;20044;-41
2022/01/23 11:12:13;;;;;;;36.97;15.43;;;;;;;7.90;78.65;103577.53;5029764;28;19925;-41
2022/01/23 11:17:23;;;;;;;38.55;17.95;;;;;;;7.79;79.44;103570.16;5033159;28;20048;-41
2022/01/23 11:19:51;;;;;;;41.33;17.88;;;;;;;7.63;79.97;103572.94;5027229;28;20029;-42
2022/01/23 11:22:19;;;;;;;47.47;19.45;;;;;;;7.59;79.86;103573.25;5033015;28;20033;-41
2022/01/23 11:24:47;;;;;;;39.60;18.25;;;;;;;7.48;80.49;103568.56;5032196;28;20087;-42
2022/01/23 11:27:17;;;;;;;48.97;19.20;;;;;;;7.59;80.69;103574.09;5034893;28;20048;-42
2022/01/23 11:29:57;;;;;;;34.83;17.08;;;;;;;7.47;79.61;103569.47;5033249;28;20033;-42
2022/01/23 11:32:25;;;;;;;42.83;19.73;;;;;;;7.56;79.72;103566.25;5030057;28;20025;-42
2022/01/23 11:34:51;;;;;;;46.63;17.38;;;;;;;7.52;79.57;103558.50;5032666;28;20040;-42
2022/01/23 11:37:17;;;;;;;42.95;19.08;;;;;;;7.45;79.40;103549.97;5031849;28;20030;-41
2022/01/23 11:39:51;;;;;;;38.95;18.10;;;;;;;7.50;80.01;103553.22;5024493;28;20409;-43
2022/01/23 11:56:23;;;;;;;49.40;20.55;;;;;;;7.63;80.79;103545.28;5023933;28;20119;-43
2022/01/23 11:58:52;;;;;;;59.20;21.83;;;;;;;7.69;80.61;103543.09;5028568;28;20025;-43
2022/01/23 12:01:18;;;;;;;47.72;22.00;;;;;;;7.73;80.87;103543.75;5028393;28;20022;-42
2022/01/23 12:04:05;;;;;;;60.03;22.42;;;;;;;7.76;81.09;103548.91;5030751;28;20025;-43
2022/01/23 12:06:31;;;;;;;51.00;22.27;;;;;;;7.60;81.82;103535.59;5030216;28;20052;-44
2022/01/23 12:09:19;;;;;;;49.63;23.13;;;;;;;7.56;81.88;103542.13;5043409;28;20446;-41
2022/01/23 12:12:03;;;;;;;54.47;22.98;;;;;;;7.63;82.28;103539.91;5024820;28;20033;-42
2022/01/23 12:17:16;;;;;;;48.03;22.20;;;;;;;7.67;81.09;103528.91;5024941;28;20125;-41
2022/01/23 12:20:07;;;;;;;47.55;22.38;;;;;;;7.84;80.21;103530.50;5020297;28;20087;-43
2022/01/23 12:22:40;;;;;;;48.55;21.05;;;;;;;7.87;79.54;103524.09;5017998;28;20119;-42
2022/01/23 12:25:10;;;;;;;56.40;22.88;;;;;;;7.77;79.96;103528.34;5029244;28;20037;-42
2022/01/23 12:27:36;;;;;;;48.03;23.08;;;;;;;7.60;80.98;103529.38;5020714;28;20507;-43
2022/01/23 12:30:22;;;;;;;50.28;23.00;;;;;;;7.50;81.12;103523.75;5027768;28;20061;-42
2022/01/23 12:33:12;;;;;;;47.40;22.00;;;;;;;7.55;81.13;103518.94;5013772;28;20546;-42
2022/01/23 12:35:40;;;;;;;48.33;22.17;;;;;;;7.61;80.62;103533.78;5025223;28;20044;-42
2022/01/23 12:38:06;;;;;;;;;;;;;;;7.71;80.38;103532.25;5010848;28;20120;-42
2022/01/23 12:40:45;;;;;;;46.58;20.48;;;;;;;7.81;79.33;103533.38;5029137;28;20120;-43
2022/01/23 12:43:24;;;;;;;44.38;21.30;;;;;;;7.59;79.36;103525.84;5028151;28;20033;-43
2022/01/23 12:45:52;;;;;;;46.97;21.30;;;;;;;7.41;80.36;103527.88;5027022;28;20112;-43
2022/01/23 12:48:26;;;;;;;;;;;;;;;7.33;80.37;103523.94;5029206;28;20030;-42
2022/01/23 12:50:54;;;;;;;53.28;21.88;;;;;;;7.20;80.65;103513.97;5029384;28;19917;-43
2022/01/23 12:53:19;;;;;;;49.30;22.30;;;;;;;7.20;81.11;103510.44;5028864;28;20103;-43
2022/01/23 12:56:01;;;;;;;46.80;21.67;;;;;;;7.27;81.24;103511.78;5028487;28;20449;-43
2022/01/23 12:58:27;;;;;;;46.75;21.65;;;;;;;7.39;79.97;103512.84;5010868;28;20458;-43
2022/01/23 13:00:52;;;;;;;50.15;21.23;;;;;;;7.46;80.19;103508.81;5024242;28;20036;-43
2022/01/23 13:03:23;;;;;;;51.75;21.33;;;;;;;7.51;78.93;103513.91;5028319;28;20041;-43
2022/01/23 13:05:48;;;;;;;56.20;22.63;;;;;;;7.40;79.27;103503.88;5030289;28;20035;-41
2022/01/23 13:08:22;;;;;;;46.58;19.73;;;;;;;7.32;79.51;103512.38;5030210;28;20508;-42
2022/01/23 13:11:06;;;;;;;53.95;20.27;;;;;;;7.31;79.60;103512.44;5032528;28;20155;-41
2022/01/23 13:32:26;;;;;;;36.75;15.75;;;;;;;7.08;77.61;103505.81;5035624;28;20044;-42
2022/01/23 13:34:57;;;;;;;40.08;16.65;;;;;;;7.14;78.28;103508.16;5027012;28;20045;-41
2022/01/23 13:37:28;;;;;;;36.95;16.13;;;;;;;7.19;78.21;103498.88;5017053;28;20369;-42
2022/01/23 13:40:04;;;;;;;45.10;18.67;;;;;;;7.19;78.86;103506.91;5027198;28;20025;-43
2022/01/23 13:59:33;;;;;;;40.45;18.95;;;;;;;7.22;78.03;103493.31;5032608;28;20108;-40
2022/01/23 14:04:36;;;;;;;43.63;18.95;;;;;;;7.19;76.98;103490.84;5031932;28;20068;-42
2022/01/23 14:07:02;;;;;;;43.35;19.85;;;;;;;7.21;76.99;103496.09;5031724;28;20139;-42
2022/01/23 14:09:27;;;;;;;40.33;19.88;;;;;;;7.22;76.44;103496.00;5031900;28;20033;-42
2022/01/23 14:11:53;;;;;;;42.00;20.48;;;;;;;7.16;75.67;103490.16;5031844;28;20057;-42
2022/01/23 14:14:25;;;;;;;41.17;19.77;;;;;;;7.14;75.11;103486.72;5032286;28;20036;-42
2022/01/23 14:16:52;;;;;;;32.67;16.40;;;;;;;6.97;73.94;103485.06;5031950;28;20033;-43
2022/01/23 14:19:28;;;;;;;40.63;18.80;;;;;;;7.02;74.01;103488.31;5012335;28;20037;-43
2022/01/23 14:22:02;;;;;;;37.08;18.98;;;;;;;7.03;74.29;103490.06;5032012;28;20037;-43
2022/01/23 14:24:29;;;;;;;40.55;21.38;;;;;;;6.98;74.24;103486.81;5031680;28;20033;-43
2022/01/23 14:27:06;;;;;;;43.65;22.55;;;;;;;6.89;74.62;103479.31;5013986;28;20060;-41
2022/01/23 14:29:34;;;;;;;39.97;21.30;;;;;;;6.91;74.76;103483.63;5031554;28;20455;-42
2022/01/23 14:32:15;;;;;;;46.50;21.55;;;;;;;6.96;75.35;103486.03;5032181;28;20291;-43
2022/01/23 14:34:41;;;;;;;44.03;21.38;;;;;;;6.92;74.65;103488.00;5031724;28;20021;-42
2022/01/23 14:37:07;;;;;;;45.95;23.30;;;;;;;6.94;75.06;103487.94;5017800;28;20037;-43
2022/01/23 14:39:34;;;;;;;46.10;22.98;;;;;;;6.92;75.02;103487.16;5031685;28;20029;-42
2022/01/23 14:42:14;;;;;;;43.50;22.63;;;;;;;6.93;75.28;103483.53;5031644;28;20116;-42
2022/01/23 14:44:39;;;;;;;39.58;20.63;;;;;;;7.04;75.21;103481.06;5027386;28;20045;-41
2022/01/23 14:47:07;;;;;;;43.42;22.38;;;;;;;7.00;74.46;103479.50;5030380;28;20033;-41
2022/01/23 14:49:33;;;;;;;50.80;24.77;;;;;;;6.98;74.75;103476.09;5044292;28;20450;-42
2022/01/23 14:52:01;;;;;;;52.72;24.45;;;;;;;6.98;75.13;103476.94;5045347;28;20021;-41